Airfield :
LOGIN :

Register | Disclaimer

   EN    FR    IT 

 










Legend :    VFR   Marginal VFR   IFR   Intensive IFR   Very Intensive IFR
Visi :
Ceiling :
>= 8 km
>= 3000ft
5 to 8 km
1000 to 3000 ft
1500m to 5 km
500 to 1000 ft
800 to 1500m
200 to 500 ft
< 800m
< 200 ft
Symbols :   Thunderstorms  Fog  Heavy snow  Heavy precipitations  Wind > 20 kt
SIGMETs :     Misc.  Thunderstorms  Icing  Turbulence  Mountain Waves  Volcanic Ashes






- Airport Elevation : 87 ft
- IATA code : FSC


LFKF - Figari

CURRENT METAR :
  • 062300Z AUTO 23017KT CAVOK 24/20 Q1015 NOSIG

EXPIRED METARs :
  • 062230Z AUTO 22016KT CAVOK 24/20 Q1016 NOSIG
  • 062200Z AUTO 22014KT CAVOK 24/21 Q1015 NOSIG
  • 062130Z AUTO 21013KT CAVOK 24/21 Q1015 NOSIG
  • 062100Z AUTO 23016KT CAVOK 24/22 Q1015 NOSIG
  • 062030Z AUTO 23012KT CAVOK 24/22 Q1015 NOSIG

TAF TAF LFKF
Valid from the 06 at 15:00 until the 07 at 15:00 UTC


061400Z 0615/0715 24015KT CAVOK
TEMPO 0712/0715 24015G25KT FEW060TCU



MET'MAP, your aeronautical weather chart ! - Copyright ORBIFLY December 2007 - Disclaimer

ORBIFLY MET'MAP TEAM :

Programming & Development : Alexandra Zaïnal
Original concept : Baudouin d'Aumeries
Technical & hardware support : Manuel Goepfert
Assistance : Marc-Olivier Méhu




SOURCES & CREDITS :

   NOAA